createdAt,value
2023-02-19T00:02:33.525Z,100104.16
2023-02-19T00:05:35.886Z,100103.19
2023-02-19T00:08:38.968Z,100118.81
2023-02-19T00:11:41.911Z,100127.53
2023-02-19T00:14:44.424Z,100107.13
2023-02-19T00:17:46.730Z,100108.72
2023-02-19T00:20:49.349Z,100139.84
2023-02-19T00:24:03.983Z,100134.63
2023-02-19T00:27:06.365Z,100149.34
2023-02-19T00:30:09.838Z,100144.03
2023-02-19T00:33:12.309Z,100149.19
2023-02-19T00:36:15.399Z,100142.38
2023-02-19T00:39:18.680Z,100114.53
2023-02-19T00:42:21.225Z,100115.22
2023-02-19T00:45:23.826Z,100108.63
2023-02-19T00:48:26.528Z,100108.84
2023-02-19T00:51:31.908Z,100109.00
2023-02-19T00:54:34.345Z,100120.84
2023-02-19T00:57:36.754Z,100086.53
2023-02-19T01:00:39.277Z,100137.34
2023-02-19T01:03:43.558Z,100143.25
2023-02-19T01:06:46.098Z,100146.19
2023-02-19T01:09:48.711Z,100152.22
2023-02-19T01:12:51.161Z,100131.56
2023-02-19T01:15:53.951Z,100128.22
2023-02-19T01:18:57.554Z,100132.53
2023-02-19T01:22:00.189Z,100157.25
2023-02-19T01:25:02.607Z,100165.53
2023-02-19T01:28:05.811Z,100142.03
2023-02-19T01:31:13.542Z,100157.25
2023-02-19T01:34:16.066Z,100123.13
2023-02-19T01:37:18.417Z,100124.59
2023-02-19T01:40:20.985Z,100132.94
2023-02-19T01:43:24.173Z,100131.81
2023-02-19T01:46:28.998Z,100160.06
2023-02-19T01:49:39.910Z,100167.25
2023-02-19T01:52:42.513Z,100169.09
2023-02-19T01:55:48.239Z,100169.25
2023-02-19T01:58:51.167Z,100165.19
2023-02-19T02:01:53.572Z,100126.44
2023-02-19T02:05:00.236Z,100155.66
2023-02-19T02:08:22.116Z,100172.41
2023-02-19T02:11:24.784Z,100140.41
2023-02-19T02:14:30.690Z,100165.25
2023-02-19T02:17:54.431Z,100168.41
2023-02-19T02:21:21.313Z,100171.78
2023-02-19T02:25:01.228Z,100158.97
2023-02-19T02:28:36.598Z,100159.69
2023-02-19T02:31:44.516Z,100159.94
2023-02-19T02:34:59.341Z,100179.53
2023-02-19T02:38:07.749Z,100162.88
2023-02-19T02:41:11.889Z,100141.03
2023-02-19T02:44:15.010Z,100176.59
2023-02-19T02:47:37.753Z,100173.66
2023-02-19T02:50:54.936Z,100182.66
2023-02-19T02:54:19.880Z,100177.94
2023-02-19T02:57:22.467Z,100165.19
2023-02-19T03:00:51.074Z,100195.47
2023-02-19T03:04:02.130Z,100198.75
2023-02-19T03:07:09.646Z,100214.25
2023-02-19T03:10:29.612Z,100204.22
2023-02-19T03:13:55.011Z,100211.88
2023-02-19T03:17:24.773Z,100219.22
2023-02-19T03:20:30.161Z,100227.31
2023-02-19T03:23:53.869Z,100239.84
2023-02-19T03:26:58.566Z,100226.78
2023-02-19T03:30:18.653Z,100218.66
2023-02-19T03:33:26.493Z,100245.34
2023-02-19T03:36:35.795Z,100214.53
2023-02-19T03:39:44.518Z,100246.19
2023-02-19T03:43:17.783Z,100228.56
2023-02-19T03:46:42.228Z,100243.25
2023-02-19T03:49:53.442Z,100220.25
2023-02-19T03:53:11.757Z,100230.09
2023-02-19T03:56:16.520Z,100198.13
2023-02-19T03:59:24.098Z,100216.50
2023-02-19T04:02:34.003Z,100176.75
2023-02-19T04:05:44.551Z,100210.78
2023-02-19T04:08:52.355Z,100202.25
2023-02-19T04:11:55.390Z,100172.03
2023-02-19T04:15:04.255Z,100209.91
2023-02-19T04:18:11.432Z,100147.22
2023-02-19T04:21:15.286Z,100159.13
2023-02-19T04:24:36.878Z,100192.00
2023-02-19T04:27:40.210Z,100192.00
2023-02-19T04:30:43.754Z,100188.88
2023-02-19T04:33:47.355Z,100182.81
2023-02-19T04:36:49.667Z,100171.09
2023-02-19T04:39:52.043Z,100167.06
2023-02-19T04:42:54.574Z,100163.94
2023-02-19T04:46:01.374Z,100193.78
2023-02-19T04:49:04.318Z,100161.69
2023-02-19T04:52:06.763Z,100157.31
2023-02-19T04:55:09.365Z,100154.44
2023-02-19T04:58:11.773Z,100160.78
2023-02-19T05:01:14.751Z,100186.56
2023-02-19T05:04:17.354Z,100168.63
2023-02-19T05:07:19.798Z,100183.03
2023-02-19T05:10:22.394Z,100181.28
2023-02-19T05:13:25.059Z,100179.75
2023-02-19T05:16:27.621Z,100138.78
2023-02-19T05:19:30.087Z,100163.50
2023-02-19T05:22:32.880Z,100157.06
2023-02-19T05:25:35.193Z,100145.13
2023-02-19T05:28:37.932Z,100175.25
2023-02-19T05:31:40.432Z,100138.75
2023-02-19T05:34:42.934Z,100173.19
2023-02-19T05:37:45.337Z,100172.97
2023-02-19T05:40:48.263Z,100152.59
2023-02-19T05:43:51.357Z,100187.78
2023-02-19T05:46:53.713Z,100185.59
2023-02-19T05:49:56.110Z,100188.78
2023-02-19T05:53:02.615Z,100171.50
2023-02-19T05:56:05.758Z,100193.47
2023-02-19T05:59:22.809Z,100165.38
2023-02-19T06:02:25.381Z,100156.47
2023-02-19T06:05:27.734Z,100180.03
2023-02-19T06:08:30.194Z,100150.81
2023-02-19T06:11:32.901Z,100155.31
2023-02-19T06:14:35.294Z,100161.19
2023-02-19T06:17:37.622Z,100172.69
2023-02-19T06:20:40.044Z,100157.56
2023-02-19T06:23:43.668Z,100147.16
2023-02-19T06:26:46.580Z,100132.44
2023-02-19T06:29:48.958Z,100164.94
2023-02-19T06:32:54.048Z,100161.22
2023-02-19T06:35:59.485Z,100177.00
2023-02-19T06:39:03.922Z,100162.44
2023-02-19T06:42:06.390Z,100162.31
2023-02-19T06:45:09.039Z,100114.31
2023-02-19T06:48:11.552Z,100116.06
2023-02-19T06:51:18.682Z,100128.13
2023-02-19T06:54:21.142Z,100107.84
2023-02-19T06:57:23.506Z,100128.38
2023-02-19T07:00:25.905Z,100137.84
2023-02-19T07:03:28.338Z,100114.81
2023-02-19T07:06:31.553Z,100130.63
2023-02-19T07:09:34.233Z,100113.69
2023-02-19T07:12:36.658Z,100140.94
2023-02-19T07:15:39.100Z,100143.94
2023-02-19T07:18:41.529Z,100108.59
2023-02-19T07:21:44.070Z,100091.50
2023-02-19T07:24:47.974Z,100121.44
2023-02-19T07:27:50.364Z,100109.63
2023-02-19T07:30:52.935Z,100115.88
2023-02-19T07:33:55.960Z,100104.16
2023-02-19T07:36:58.342Z,100118.34
2023-02-19T07:40:00.794Z,100110.75
2023-02-19T07:43:03.771Z,100083.06
2023-02-19T07:46:10.022Z,100080.91
2023-02-19T07:49:12.484Z,100100.50
2023-02-19T07:52:14.954Z,100077.38
2023-02-19T07:55:17.400Z,100048.97
2023-02-19T07:58:19.846Z,100087.66
2023-02-19T08:01:42.672Z,100062.06
2023-02-19T08:04:47.413Z,100064.72
2023-02-19T08:07:49.725Z,100072.50
2023-02-19T08:11:24.108Z,100068.94
2023-02-19T08:14:27.552Z,100083.19
2023-02-19T08:17:31.231Z,100093.81
2023-02-19T08:20:34.026Z,100084.66
2023-02-19T08:23:36.655Z,100105.06
2023-02-19T08:26:39.050Z,100088.78
2023-02-19T08:29:41.845Z,100115.47
2023-02-19T08:32:44.283Z,100092.09
2023-02-19T08:35:47.080Z,100091.50
2023-02-19T08:38:49.605Z,100130.22
2023-02-19T08:41:58.057Z,100106.00
2023-02-19T08:45:00.504Z,100109.69
2023-02-19T08:48:02.958Z,100135.06
2023-02-19T08:51:08.643Z,100134.22
2023-02-19T08:54:11.161Z,100153.34
2023-02-19T08:57:13.491Z,100152.41
2023-02-19T09:00:16.835Z,100130.88
2023-02-19T09:03:19.362Z,100135.13
2023-02-19T09:06:21.893Z,100141.41
2023-02-19T09:09:24.365Z,100099.50
2023-02-19T09:12:26.840Z,100149.03
2023-02-19T09:15:30.214Z,100123.94
2023-02-19T09:18:32.818Z,100150.13
2023-02-19T09:21:35.361Z,100148.66
2023-02-19T09:24:37.796Z,100123.47
2023-02-19T09:27:40.210Z,100118.66
2023-02-19T09:30:42.666Z,100123.78
2023-02-19T09:33:47.001Z,100081.84
2023-02-19T09:36:50.250Z,100110.75
2023-02-19T09:39:53.174Z,100117.66
2023-02-19T09:42:55.698Z,100100.81
2023-02-19T09:46:10.006Z,100096.66
2023-02-19T09:49:36.851Z,100118.31
2023-02-19T09:52:47.732Z,100119.13
2023-02-19T09:55:51.485Z,100099.00
2023-02-19T09:58:58.426Z,100092.38
2023-02-19T10:02:21.883Z,100114.38
2023-02-19T10:05:26.281Z,100119.16
2023-02-19T10:08:33.329Z,100113.94
2023-02-19T10:11:36.245Z,100100.16
2023-02-19T10:15:09.266Z,100085.97
2023-02-19T10:18:11.714Z,100072.19
2023-02-19T10:21:28.067Z,100052.69
2023-02-19T10:24:31.213Z,100055.94
2023-02-19T10:27:33.569Z,100067.03
2023-02-19T10:30:37.449Z,100059.81
2023-02-19T10:33:57.573Z,100062.16
2023-02-19T10:37:00.253Z,100038.38
2023-02-19T10:40:02.979Z,100059.31
2023-02-19T10:43:05.940Z,100066.25
2023-02-19T10:46:24.282Z,100052.25
2023-02-19T10:49:34.151Z,100050.44
2023-02-19T10:52:36.638Z,99991.75
2023-02-19T10:55:40.772Z,100011.63
2023-02-19T10:58:45.007Z,100014.66
2023-02-19T11:02:02.494Z,100016.88
2023-02-19T11:05:17.074Z,100006.06
2023-02-19T11:08:24.190Z,100014.91
2023-02-19T11:11:26.495Z,100015.19
2023-02-19T11:14:31.354Z,99991.22
2023-02-19T11:17:33.929Z,99968.88
2023-02-19T11:20:36.475Z,99998.78
2023-02-19T11:23:46.140Z,100000.03
2023-02-19T11:26:48.954Z,99991.91
2023-02-19T11:29:51.542Z,99988.44
2023-02-19T11:32:54.272Z,99966.38
2023-02-19T11:36:14.902Z,99984.97
2023-02-19T11:39:17.651Z,99976.00
2023-02-19T11:42:42.529Z,99970.59
2023-02-19T11:45:53.619Z,99965.66
2023-02-19T11:49:41.390Z,99969.75
2023-02-19T11:53:22.780Z,99967.22
2023-02-19T11:56:34.003Z,99952.72
2023-02-19T11:59:45.134Z,99915.84
2023-02-19T12:03:18.685Z,99906.44
2023-02-19T12:06:21.057Z,99927.41
2023-02-19T12:10:07.197Z,99903.50
2023-02-19T12:13:26.916Z,99896.19
2023-02-19T12:16:58.138Z,99905.13
2023-02-19T12:20:23.076Z,99889.94
2023-02-19T12:23:32.429Z,99890.50
2023-02-19T12:26:59.314Z,99885.88
2023-02-19T12:30:28.135Z,99898.44
2023-02-19T12:33:39.398Z,99884.41
2023-02-19T12:36:51.004Z,99893.19
2023-02-19T12:40:14.796Z,99857.41
2023-02-19T12:43:21.253Z,99886.44
2023-02-19T12:46:49.246Z,99878.81
2023-02-19T12:50:08.137Z,99839.66
2023-02-19T12:53:15.170Z,99860.13
2023-02-19T12:56:24.217Z,99845.78
2023-02-19T12:59:26.494Z,99840.75
2023-02-19T13:02:48.538Z,99816.50
2023-02-19T13:06:09.366Z,99803.88
2023-02-19T13:09:19.517Z,99836.44
2023-02-19T13:12:27.713Z,99822.59
2023-02-19T13:15:45.242Z,99835.19
2023-02-19T13:18:58.579Z,99862.91
2023-02-19T13:22:53.150Z,99879.06
2023-02-19T13:26:09.601Z,99840.00
2023-02-19T13:29:50.038Z,99870.94
2023-02-19T13:32:59.057Z,99859.00
2023-02-19T13:36:12.378Z,99833.38
2023-02-19T13:39:17.038Z,99860.59
2023-02-19T13:42:39.957Z,99861.16
2023-02-19T13:45:46.137Z,99864.94
2023-02-19T13:48:48.851Z,99829.16
2023-02-19T13:51:53.990Z,99859.34
2023-02-19T13:55:42.366Z,99853.13
2023-02-19T13:58:57.782Z,99867.78
2023-02-19T14:02:02.873Z,99851.81
2023-02-19T14:05:10.610Z,99828.16
2023-02-19T14:08:13.172Z,99845.22
2023-02-19T14:11:16.944Z,99839.13
2023-02-19T14:14:35.233Z,99852.34
2023-02-19T14:17:43.159Z,99852.63
2023-02-19T14:20:45.997Z,99829.28
2023-02-19T14:23:58.846Z,99859.91
2023-02-19T14:27:01.511Z,99844.72
2023-02-19T14:30:05.088Z,99855.75
2023-02-19T14:33:11.348Z,99831.53
2023-02-19T14:36:34.692Z,99863.41
2023-02-19T14:39:39.089Z,99858.84
2023-02-19T14:42:42.279Z,99838.16
2023-02-19T14:45:52.643Z,99857.44
2023-02-19T14:48:57.663Z,99848.53
2023-02-19T14:52:04.421Z,99852.88
2023-02-19T14:55:25.902Z,99853.53
2023-02-19T14:58:32.099Z,99834.50
2023-02-19T15:01:34.827Z,99837.41
2023-02-19T15:04:37.984Z,99856.34
2023-02-19T15:07:42.263Z,99840.16
2023-02-19T15:10:45.106Z,99857.66
2023-02-19T15:14:00.157Z,99875.50
2023-02-19T15:17:05.302Z,99903.88
2023-02-19T15:20:16.422Z,99928.28
2023-02-19T15:23:24.019Z,99948.13
2023-02-19T15:26:38.380Z,99952.53
2023-02-19T15:29:50.871Z,99923.94
2023-02-19T15:33:00.165Z,99952.31
2023-02-19T15:36:07.142Z,99952.31
2023-02-19T15:39:21.227Z,99956.84
2023-02-19T15:42:28.455Z,99960.09
2023-02-19T15:45:41.781Z,99966.13
2023-02-19T15:48:54.482Z,99991.47
2023-02-19T15:52:09.142Z,99970.84
2023-02-19T15:55:33.518Z,100015.47
2023-02-19T15:58:49.962Z,100027.06
2023-02-19T16:01:53.054Z,100027.66
2023-02-19T16:04:56.454Z,100016.63
2023-02-19T16:08:19.304Z,100023.69
2023-02-19T16:11:21.886Z,100046.56
2023-02-19T16:14:34.929Z,100053.16
2023-02-19T16:17:37.386Z,100064.78
2023-02-19T16:20:40.399Z,100074.84
2023-02-19T16:23:46.025Z,100076.78
2023-02-19T16:26:48.474Z,100072.97
2023-02-19T16:29:52.259Z,100057.78
2023-02-19T16:33:32.944Z,100087.19
2023-02-19T16:36:37.938Z,100062.13
2023-02-19T16:39:40.395Z,100080.66
2023-02-19T16:42:48.841Z,100128.25
2023-02-19T16:45:51.278Z,100122.09
2023-02-19T16:48:54.670Z,100116.53
2023-02-19T16:51:59.646Z,100141.78
2023-02-19T16:55:02.365Z,100101.22
2023-02-19T16:58:04.762Z,100152.78
2023-02-19T17:01:07.551Z,100147.81
2023-02-19T17:04:13.237Z,100178.09
2023-02-19T17:07:17.694Z,100180.91
2023-02-19T17:10:23.494Z,100188.78
2023-02-19T17:13:26.037Z,100168.13
2023-02-19T17:16:40.393Z,100162.25
2023-02-19T17:19:43.244Z,100163.53
2023-02-19T17:22:45.832Z,100175.69
2023-02-19T17:25:49.250Z,100183.06
2023-02-19T17:28:51.898Z,100210.03
2023-02-19T17:31:54.824Z,100212.84
2023-02-19T17:34:57.253Z,100208.28
2023-02-19T17:37:59.983Z,100208.00
2023-02-19T17:41:04.199Z,100242.16
2023-02-19T17:44:06.900Z,100248.53
2023-02-19T17:47:09.537Z,100222.72
2023-02-19T17:50:21.721Z,100253.94
2023-02-19T17:53:25.439Z,100264.16
2023-02-19T17:56:28.862Z,100246.53
2023-02-19T17:59:32.007Z,100285.13
2023-02-19T18:02:34.781Z,100256.84
2023-02-19T18:05:37.284Z,100264.53
2023-02-19T18:08:42.093Z,100291.69
2023-02-19T18:11:46.375Z,100286.28
2023-02-19T18:14:49.077Z,100320.19
2023-02-19T18:17:51.518Z,100296.00
2023-02-19T18:20:53.894Z,100295.34
2023-02-19T18:23:57.783Z,100334.13
2023-02-19T18:27:01.639Z,100289.53
2023-02-19T18:30:05.028Z,100303.03
2023-02-19T18:33:10.798Z,100340.66
2023-02-19T18:36:13.594Z,100326.13
2023-02-19T18:39:16.332Z,100352.84
2023-02-19T18:42:19.200Z,100330.44
2023-02-19T18:45:21.692Z,100360.16
2023-02-19T18:48:24.537Z,100359.41
2023-02-19T18:51:27.243Z,100370.50
2023-02-19T18:54:31.487Z,100378.06
2023-02-19T18:57:35.174Z,100359.59
2023-02-19T19:00:38.306Z,100380.53
2023-02-19T19:03:40.956Z,100399.56
2023-02-19T19:06:43.687Z,100417.94
2023-02-19T19:09:46.771Z,100421.28
2023-02-19T19:12:50.443Z,100421.50
2023-02-19T19:15:53.098Z,100441.13
2023-02-19T19:18:57.124Z,100445.72
2023-02-19T19:21:59.881Z,100434.84
2023-02-19T19:25:02.808Z,100437.22
2023-02-19T19:28:05.480Z,100471.53
2023-02-19T19:31:08.184Z,100489.44
2023-02-19T19:34:11.757Z,100498.03
2023-02-19T19:37:14.507Z,100503.19
2023-02-19T19:40:17.806Z,100501.56
2023-02-19T19:43:20.196Z,100486.53
2023-02-19T19:46:22.934Z,100494.97
2023-02-19T19:49:25.588Z,100520.59
2023-02-19T19:52:28.289Z,100512.34
2023-02-19T19:55:30.974Z,100493.06
2023-02-19T19:58:34.575Z,100555.91
2023-02-19T20:01:37.889Z,100538.91
2023-02-19T20:04:42.719Z,100542.41
2023-02-19T20:07:45.910Z,100575.56
2023-02-19T20:10:48.744Z,100555.09
2023-02-19T20:13:51.745Z,100535.75
2023-02-19T20:16:55.243Z,100550.16
2023-02-19T20:19:57.628Z,100539.38
2023-02-19T20:23:00.490Z,100560.81
2023-02-19T20:26:07.599Z,100586.44
2023-02-19T20:29:12.114Z,100594.06
2023-02-19T20:32:19.880Z,100609.50
2023-02-19T20:35:28.445Z,100590.06
2023-02-19T20:38:31.076Z,100590.94
2023-02-19T20:41:45.669Z,100582.47
2023-02-19T20:44:48.117Z,100588.41
2023-02-19T20:47:50.809Z,100607.97
2023-02-19T20:50:59.526Z,100603.72
2023-02-19T20:54:02.830Z,100554.75
2023-02-19T20:57:05.774Z,100600.00
2023-02-19T21:00:09.469Z,100641.00
2023-02-19T21:03:12.494Z,100653.13
2023-02-19T21:06:15.328Z,100631.97
2023-02-19T21:09:21.854Z,100637.22
2023-02-19T21:12:24.515Z,100656.81
2023-02-19T21:15:27.335Z,100635.66
2023-02-19T21:18:30.060Z,100669.03
2023-02-19T21:21:34.495Z,100647.69
2023-02-19T21:24:37.152Z,100659.69
2023-02-19T21:27:40.775Z,100694.75
2023-02-19T21:30:43.305Z,100667.66
2023-02-19T21:33:45.790Z,100701.00
2023-02-19T21:36:48.396Z,100699.38
2023-02-19T21:39:51.149Z,100722.59
2023-02-19T21:42:53.610Z,100699.69
2023-02-19T21:45:56.908Z,100718.34
2023-02-19T21:49:00.233Z,100701.31
2023-02-19T21:52:02.925Z,100657.09
2023-02-19T21:55:05.672Z,100722.78
2023-02-19T21:58:08.354Z,100729.63
2023-02-19T22:01:10.889Z,100708.34
2023-02-19T22:04:15.886Z,100733.00
2023-02-19T22:07:18.263Z,100751.91
2023-02-19T22:10:26.589Z,100727.44
2023-02-19T22:13:28.952Z,100762.50
2023-02-19T22:16:32.632Z,100770.25
2023-02-19T22:19:34.997Z,100762.84
2023-02-19T22:22:37.651Z,100764.78
2023-02-19T22:25:39.971Z,100808.41
2023-02-19T22:28:42.384Z,100825.56
2023-02-19T22:31:45.164Z,100821.44
2023-02-19T22:34:47.675Z,100799.34
2023-02-19T22:37:50.012Z,100833.53
2023-02-19T22:40:52.430Z,100810.59
2023-02-19T22:43:56.045Z,100854.19
2023-02-19T22:46:58.399Z,100824.44
2023-02-19T22:50:00.819Z,100841.53
2023-02-19T22:53:03.213Z,100865.47
2023-02-19T22:56:06.153Z,100864.63
2023-02-19T22:59:08.536Z,100869.78
2023-02-19T23:02:11.062Z,100844.22
2023-02-19T23:05:13.646Z,100855.34
2023-02-19T23:08:16.106Z,100875.81
2023-02-19T23:11:27.770Z,100891.28
2023-02-19T23:14:30.364Z,100867.44
2023-02-19T23:17:33.247Z,100905.06
2023-02-19T23:20:35.869Z,100877.78
2023-02-19T23:23:42.153Z,100888.03
2023-02-19T23:26:46.288Z,100908.56
2023-02-19T23:29:48.757Z,100907.69
2023-02-19T23:32:51.235Z,100922.22
2023-02-19T23:35:53.746Z,100897.44
2023-02-19T23:38:56.455Z,100943.47
2023-02-19T23:41:58.928Z,100910.22
2023-02-19T23:45:01.612Z,100969.13
2023-02-19T23:48:04.090Z,100978.59
2023-02-19T23:51:06.704Z,100947.00
2023-02-19T23:54:09.413Z,100966.63
2023-02-19T23:57:12.840Z,100968.38
